sensor_id;sensor_type;location;lat;lon;timestamp;temperature;humidity
54680;DHT22;40578;53.178;5.846;2023-01-29T00:01:03;4.00;99.90
54680;DHT22;40578;53.178;5.846;2023-01-29T00:03:29;4.00;99.90
54680;DHT22;40578;53.178;5.846;2023-01-29T00:05:55;4.00;99.90
54680;DHT22;40578;53.178;5.846;2023-01-29T00:08:20;4.00;99.90
54680;DHT22;40578;53.178;5.846;2023-01-29T00:10:46;4.00;99.90
54680;DHT22;40578;53.178;5.846;2023-01-29T00:13:12;4.00;99.90
54680;DHT22;40578;53.178;5.846;2023-01-29T00:15:38;4.10;99.90
54680;DHT22;40578;53.178;5.846;2023-01-29T00:18:04;4.10;99.90
54680;DHT22;40578;53.178;5.846;2023-01-29T00:20:30;4.00;99.90
54680;DHT22;40578;53.178;5.846;2023-01-29T00:22:55;4.00;99.90
54680;DHT22;40578;53.178;5.846;2023-01-29T00:25:21;4.00;99.90
54680;DHT22;40578;53.178;5.846;2023-01-29T00:27:47;4.00;99.90
54680;DHT22;40578;53.178;5.846;2023-01-29T00:30:13;4.00;99.90
54680;DHT22;40578;53.178;5.846;2023-01-29T00:32:43;4.00;99.90
54680;DHT22;40578;53.178;5.846;2023-01-29T00:35:10;4.00;99.90
54680;DHT22;40578;53.178;5.846;2023-01-29T00:37:35;4.00;99.90
54680;DHT22;40578;53.178;5.846;2023-01-29T00:40:01;3.90;99.90
54680;DHT22;40578;53.178;5.846;2023-01-29T00:42:27;4.00;99.90
54680;DHT22;40578;53.178;5.846;2023-01-29T00:45:11;3.90;99.90
54680;DHT22;40578;53.178;5.846;2023-01-29T00:47:37;3.90;99.90
54680;DHT22;40578;53.178;5.846;2023-01-29T00:50:08;3.90;99.90
54680;DHT22;40578;53.178;5.846;2023-01-29T00:52:34;4.00;99.90
54680;DHT22;40578;53.178;5.846;2023-01-29T00:55:01;3.90;99.90
54680;DHT22;40578;53.178;5.846;2023-01-29T00:57:29;5.50;99.90
54680;DHT22;40578;53.178;5.846;2023-01-29T00:59:55;4.00;99.90
54680;DHT22;40578;53.178;5.846;2023-01-29T01:02:21;4.00;99.90
54680;DHT22;40578;53.178;5.846;2023-01-29T01:05:07;4.00;99.90
54680;DHT22;40578;53.178;5.846;2023-01-29T01:07:41;4.00;99.90
54680;DHT22;40578;53.178;5.846;2023-01-29T01:10:08;4.00;99.90
54680;DHT22;40578;53.178;5.846;2023-01-29T01:12:53;4.00;99.90
54680;DHT22;40578;53.178;5.846;2023-01-29T01:15:21;4.00;99.90
54680;DHT22;40578;53.178;5.846;2023-01-29T01:17:51;4.00;99.90
54680;DHT22;40578;53.178;5.846;2023-01-29T01:20:17;4.00;99.90
54680;DHT22;40578;53.178;5.846;2023-01-29T01:22:42;4.00;99.90
54680;DHT22;40578;53.178;5.846;2023-01-29T01:25:08;4.00;99.90
54680;DHT22;40578;53.178;5.846;2023-01-29T01:27:34;4.00;99.90
54680;DHT22;40578;53.178;5.846;2023-01-29T01:30:03;4.00;99.90
54680;DHT22;40578;53.178;5.846;2023-01-29T01:32:30;4.00;99.90
54680;DHT22;40578;53.178;5.846;2023-01-29T01:34:55;4.00;99.90
54680;DHT22;40578;53.178;5.846;2023-01-29T01:37:21;4.00;99.90
54680;DHT22;40578;53.178;5.846;2023-01-29T01:39:47;4.00;99.90
54680;DHT22;40578;53.178;5.846;2023-01-29T01:42:13;4.00;99.90
54680;DHT22;40578;53.178;5.846;2023-01-29T01:45:02;4.00;99.90
54680;DHT22;40578;53.178;5.846;2023-01-29T01:47:48;4.00;99.90
54680;DHT22;40578;53.178;5.846;2023-01-29T01:50:27;4.00;99.90
54680;DHT22;40578;53.178;5.846;2023-01-29T01:53:06;4.10;99.90
54680;DHT22;40578;53.178;5.846;2023-01-29T01:55:40;4.10;99.90
54680;DHT22;40578;53.178;5.846;2023-01-29T01:58:10;4.10;99.90
54680;DHT22;40578;53.178;5.846;2023-01-29T02:00:38;4.60;99.90
54680;DHT22;40578;53.178;5.846;2023-01-29T02:03:05;4.10;99.90
54680;DHT22;40578;53.178;5.846;2023-01-29T02:05:52;4.00;99.90
54680;DHT22;40578;53.178;5.846;2023-01-29T02:08:46;4.10;99.90
54680;DHT22;40578;53.178;5.846;2023-01-29T02:11:32;4.60;99.90
54680;DHT22;40578;53.178;5.846;2023-01-29T02:13:58;4.10;99.90
54680;DHT22;40578;53.178;5.846;2023-01-29T02:16:24;4.00;99.90
54680;DHT22;40578;53.178;5.846;2023-01-29T02:18:50;4.00;99.90
54680;DHT22;40578;53.178;5.846;2023-01-29T02:27:18;4.00;99.90
54680;DHT22;40578;53.178;5.846;2023-01-29T02:35:05;3.90;99.90
54680;DHT22;40578;53.178;5.846;2023-01-29T02:40:55;3.90;99.90
54680;DHT22;40578;53.178;5.846;2023-01-29T02:46:36;3.90;99.90
54680;DHT22;40578;53.178;5.846;2023-01-29T02:49:12;3.80;99.90
54680;DHT22;40578;53.178;5.846;2023-01-29T02:51:46;3.90;99.90
54680;DHT22;40578;53.178;5.846;2023-01-29T02:54:24;3.80;99.90
54680;DHT22;40578;53.178;5.846;2023-01-29T02:57:21;3.80;99.90
54680;DHT22;40578;53.178;5.846;2023-01-29T02:59:53;3.80;99.90
54680;DHT22;40578;53.178;5.846;2023-01-29T03:02:28;3.80;99.90
54680;DHT22;40578;53.178;5.846;2023-01-29T03:05:00;3.80;99.90
54680;DHT22;40578;53.178;5.846;2023-01-29T03:07:32;2.40;99.90
54680;DHT22;40578;53.178;5.846;2023-01-29T03:10:22;3.80;99.90
54680;DHT22;40578;53.178;5.846;2023-01-29T03:12:57;3.80;99.90
54680;DHT22;40578;53.178;5.846;2023-01-29T03:15:30;3.80;99.90
54680;DHT22;40578;53.178;5.846;2023-01-29T03:18:09;3.80;99.90
54680;DHT22;40578;53.178;5.846;2023-01-29T03:20:46;3.80;99.90
54680;DHT22;40578;53.178;5.846;2023-01-29T03:23:27;3.80;99.90
54680;DHT22;40578;53.178;5.846;2023-01-29T03:26:15;3.90;99.90
54680;DHT22;40578;53.178;5.846;2023-01-29T03:29:00;3.90;99.90
54680;DHT22;40578;53.178;5.846;2023-01-29T03:31:47;4.40;99.90
54680;DHT22;40578;53.178;5.846;2023-01-29T03:34:40;3.90;99.90
54680;DHT22;40578;53.178;5.846;2023-01-29T03:37:17;3.90;99.90
54680;DHT22;40578;53.178;5.846;2023-01-29T03:39:45;3.90;99.90
54680;DHT22;40578;53.178;5.846;2023-01-29T03:47:50;3.90;99.90
54680;DHT22;40578;53.178;5.846;2023-01-29T03:53:20;3.90;99.90
54680;DHT22;40578;53.178;5.846;2023-01-29T03:56:58;4.20;99.90
54680;DHT22;40578;53.178;5.846;2023-01-29T03:58:58;4.00;99.90
54680;DHT22;40578;53.178;5.846;2023-01-29T04:01:40;4.10;99.90
54680;DHT22;40578;53.178;5.846;2023-01-29T04:04:26;4.00;99.90
54680;DHT22;40578;53.178;5.846;2023-01-29T04:06:56;4.00;99.90
54680;DHT22;40578;53.178;5.846;2023-01-29T04:09:35;4.00;99.90
54680;DHT22;40578;53.178;5.846;2023-01-29T04:12:08;4.10;99.90
54680;DHT22;40578;53.178;5.846;2023-01-29T04:14:35;4.10;99.90
54680;DHT22;40578;53.178;5.846;2023-01-29T04:17:02;5.50;99.90
54680;DHT22;40578;53.178;5.846;2023-01-29T04:19:33;4.10;99.90
54680;DHT22;40578;53.178;5.846;2023-01-29T04:22:18;4.30;99.90
54680;DHT22;40578;53.178;5.846;2023-01-29T04:24:45;4.10;99.90
54680;DHT22;40578;53.178;5.846;2023-01-29T04:28:21;4.10;99.90
54680;DHT22;40578;53.178;5.846;2023-01-29T04:30:45;4.10;99.90
54680;DHT22;40578;53.178;5.846;2023-01-29T04:41:54;4.10;99.90
54680;DHT22;40578;53.178;5.846;2023-01-29T04:52:49;4.20;99.90
54680;DHT22;40578;53.178;5.846;2023-01-29T04:58:15;4.20;99.90
54680;DHT22;40578;53.178;5.846;2023-01-29T05:00:45;4.20;99.90
54680;DHT22;40578;53.178;5.846;2023-01-29T05:03:13;4.20;99.90
54680;DHT22;40578;53.178;5.846;2023-01-29T05:05:41;4.20;99.90
54680;DHT22;40578;53.178;5.846;2023-01-29T05:08:11;4.20;99.90
54680;DHT22;40578;53.178;5.846;2023-01-29T05:10:38;4.20;99.90
54680;DHT22;40578;53.178;5.846;2023-01-29T05:13:05;4.10;99.90
54680;DHT22;40578;53.178;5.846;2023-01-29T05:15:40;4.20;99.90
54680;DHT22;40578;53.178;5.846;2023-01-29T05:18:07;4.20;99.90
54680;DHT22;40578;53.178;5.846;2023-01-29T05:20:38;4.40;99.90
54680;DHT22;40578;53.178;5.846;2023-01-29T05:23:09;4.20;99.90
54680;DHT22;40578;53.178;5.846;2023-01-29T05:25:35;4.20;99.90
54680;DHT22;40578;53.178;5.846;2023-01-29T05:28:01;4.20;99.90
54680;DHT22;40578;53.178;5.846;2023-01-29T05:30:38;4.20;99.90
54680;DHT22;40578;53.178;5.846;2023-01-29T05:33:17;4.20;99.90
54680;DHT22;40578;53.178;5.846;2023-01-29T05:35:43;4.20;99.90
54680;DHT22;40578;53.178;5.846;2023-01-29T05:38:10;4.20;99.90
54680;DHT22;40578;53.178;5.846;2023-01-29T05:40:36;4.20;99.90
54680;DHT22;40578;53.178;5.846;2023-01-29T05:43:02;4.20;99.90
54680;DHT22;40578;53.178;5.846;2023-01-29T05:45:28;4.20;99.90
54680;DHT22;40578;53.178;5.846;2023-01-29T05:47:58;4.20;99.90
54680;DHT22;40578;53.178;5.846;2023-01-29T05:50:25;4.10;99.90
54680;DHT22;40578;53.178;5.846;2023-01-29T05:53:01;4.10;99.90
54680;DHT22;40578;53.178;5.846;2023-01-29T05:55:27;5.10;99.90
54680;DHT22;40578;53.178;5.846;2023-01-29T05:57:56;4.10;99.90
54680;DHT22;40578;53.178;5.846;2023-01-29T06:00:22;4.10;99.90
54680;DHT22;40578;53.178;5.846;2023-01-29T06:02:48;4.10;99.90
54680;DHT22;40578;53.178;5.846;2023-01-29T06:05:14;4.00;99.90
54680;DHT22;40578;53.178;5.846;2023-01-29T06:07:40;4.90;99.90
54680;DHT22;40578;53.178;5.846;2023-01-29T06:10:14;4.00;99.90
54680;DHT22;40578;53.178;5.846;2023-01-29T06:12:41;4.00;99.90
54680;DHT22;40578;53.178;5.846;2023-01-29T06:15:07;4.00;99.90
54680;DHT22;40578;53.178;5.846;2023-01-29T06:17:33;4.00;99.90
54680;DHT22;40578;53.178;5.846;2023-01-29T06:19:58;4.00;99.90
54680;DHT22;40578;53.178;5.846;2023-01-29T06:22:24;4.00;99.90
54680;DHT22;40578;53.178;5.846;2023-01-29T06:24:49;4.40;99.90
54680;DHT22;40578;53.178;5.846;2023-01-29T06:27:15;3.90;99.90
54680;DHT22;40578;53.178;5.846;2023-01-29T06:29:41;3.90;99.90
54680;DHT22;40578;53.178;5.846;2023-01-29T06:32:06;4.10;99.90
54680;DHT22;40578;53.178;5.846;2023-01-29T06:34:32;3.90;99.90
54680;DHT22;40578;53.178;5.846;2023-01-29T06:36:57;3.90;99.90
54680;DHT22;40578;53.178;5.846;2023-01-29T06:39:23;3.90;99.90
54680;DHT22;40578;53.178;5.846;2023-01-29T06:41:49;3.90;99.90
54680;DHT22;40578;53.178;5.846;2023-01-29T06:44:14;3.90;99.90
54680;DHT22;40578;53.178;5.846;2023-01-29T06:46:40;3.90;99.90
54680;DHT22;40578;53.178;5.846;2023-01-29T06:49:05;3.90;99.90
54680;DHT22;40578;53.178;5.846;2023-01-29T06:51:31;3.90;99.90
54680;DHT22;40578;53.178;5.846;2023-01-29T06:53:57;3.90;99.90
54680;DHT22;40578;53.178;5.846;2023-01-29T06:56:24;4.90;99.90
54680;DHT22;40578;53.178;5.846;2023-01-29T06:58:49;3.90;99.90
54680;DHT22;40578;53.178;5.846;2023-01-29T07:01:15;3.90;99.90
54680;DHT22;40578;53.178;5.846;2023-01-29T07:03:41;3.90;99.90
54680;DHT22;40578;53.178;5.846;2023-01-29T07:06:08;3.90;99.90
54680;DHT22;40578;53.178;5.846;2023-01-29T07:08:38;3.90;99.90
54680;DHT22;40578;53.178;5.846;2023-01-29T07:11:05;3.90;99.90
54680;DHT22;40578;53.178;5.846;2023-01-29T07:13:30;3.90;99.90
54680;DHT22;40578;53.178;5.846;2023-01-29T07:16:02;3.90;99.90
54680;DHT22;40578;53.178;5.846;2023-01-29T07:18:28;3.90;99.90
54680;DHT22;40578;53.178;5.846;2023-01-29T07:20:55;5.50;99.90
54680;DHT22;40578;53.178;5.846;2023-01-29T07:23:21;3.90;99.90
54680;DHT22;40578;53.178;5.846;2023-01-29T07:25:47;3.90;99.90
54680;DHT22;40578;53.178;5.846;2023-01-29T07:28:17;3.90;99.90
54680;DHT22;40578;53.178;5.846;2023-01-29T07:30:43;3.90;99.90
54680;DHT22;40578;53.178;5.846;2023-01-29T07:33:10;4.00;99.90
54680;DHT22;40578;53.178;5.846;2023-01-29T07:35:41;3.90;99.90
54680;DHT22;40578;53.178;5.846;2023-01-29T07:38:11;3.80;99.90
54680;DHT22;40578;53.178;5.846;2023-01-29T07:40:36;3.80;99.90
54680;DHT22;40578;53.178;5.846;2023-01-29T07:43:04;3.90;99.90
54680;DHT22;40578;53.178;5.846;2023-01-29T07:45:33;3.80;99.90
54680;DHT22;40578;53.178;5.846;2023-01-29T07:47:59;3.90;99.90
54680;DHT22;40578;53.178;5.846;2023-01-29T07:50:25;3.90;99.90
54680;DHT22;40578;53.178;5.846;2023-01-29T07:52:55;3.90;99.90
54680;DHT22;40578;53.178;5.846;2023-01-29T07:55:22;3.80;99.90
54680;DHT22;40578;53.178;5.846;2023-01-29T07:57:58;3.90;99.90
54680;DHT22;40578;53.178;5.846;2023-01-29T08:00:24;3.90;99.90
54680;DHT22;40578;53.178;5.846;2023-01-29T08:02:49;3.90;99.90
54680;DHT22;40578;53.178;5.846;2023-01-29T08:05:15;3.90;99.90
54680;DHT22;40578;53.178;5.846;2023-01-29T08:07:41;3.90;99.90
54680;DHT22;40578;53.178;5.846;2023-01-29T08:10:07;4.90;99.90
54680;DHT22;40578;53.178;5.846;2023-01-29T08:12:33;4.00;99.90
54680;DHT22;40578;53.178;5.846;2023-01-29T08:15:00;4.00;99.90
54680;DHT22;40578;53.178;5.846;2023-01-29T08:17:25;4.00;99.90
54680;DHT22;40578;53.178;5.846;2023-01-29T08:19:51;4.00;99.90
54680;DHT22;40578;53.178;5.846;2023-01-29T08:22:17;4.00;99.90
54680;DHT22;40578;53.178;5.846;2023-01-29T08:24:43;4.10;99.90
54680;DHT22;40578;53.178;5.846;2023-01-29T08:27:08;4.10;99.90
54680;DHT22;40578;53.178;5.846;2023-01-29T08:29:34;4.10;99.90
54680;DHT22;40578;53.178;5.846;2023-01-29T08:32:00;4.90;99.90
54680;DHT22;40578;53.178;5.846;2023-01-29T08:34:26;4.10;99.90
54680;DHT22;40578;53.178;5.846;2023-01-29T08:36:52;4.40;99.90
54680;DHT22;40578;53.178;5.846;2023-01-29T08:39:18;4.10;99.90
54680;DHT22;40578;53.178;5.846;2023-01-29T08:41:44;4.10;99.90
54680;DHT22;40578;53.178;5.846;2023-01-29T08:44:10;5.50;99.90
54680;DHT22;40578;53.178;5.846;2023-01-29T08:46:36;4.10;99.90
54680;DHT22;40578;53.178;5.846;2023-01-29T08:49:02;4.20;99.90
54680;DHT22;40578;53.178;5.846;2023-01-29T08:51:28;4.20;99.90
54680;DHT22;40578;53.178;5.846;2023-01-29T08:53:55;4.20;99.90
54680;DHT22;40578;53.178;5.846;2023-01-29T08:56:20;4.20;99.90
54680;DHT22;40578;53.178;5.846;2023-01-29T08:58:46;4.20;99.90
54680;DHT22;40578;53.178;5.846;2023-01-29T09:01:13;4.30;99.90
54680;DHT22;40578;53.178;5.846;2023-01-29T09:03:38;4.20;99.90
54680;DHT22;40578;53.178;5.846;2023-01-29T09:06:07;4.30;99.90
54680;DHT22;40578;53.178;5.846;2023-01-29T09:08:33;4.30;99.90
54680;DHT22;40578;53.178;5.846;2023-01-29T09:10:58;4.20;99.90
54680;DHT22;40578;53.178;5.846;2023-01-29T09:13:25;4.30;99.90
54680;DHT22;40578;53.178;5.846;2023-01-29T09:15:51;4.30;99.90
54680;DHT22;40578;53.178;5.846;2023-01-29T09:18:17;4.30;99.90
54680;DHT22;40578;53.178;5.846;2023-01-29T09:20:43;4.30;99.90
54680;DHT22;40578;53.178;5.846;2023-01-29T09:23:09;4.20;99.90
54680;DHT22;40578;53.178;5.846;2023-01-29T09:25:35;4.70;99.90
54680;DHT22;40578;53.178;5.846;2023-01-29T09:28:01;4.30;99.90
54680;DHT22;40578;53.178;5.846;2023-01-29T09:30:27;4.30;99.90
54680;DHT22;40578;53.178;5.846;2023-01-29T09:32:52;4.40;99.90
54680;DHT22;40578;53.178;5.846;2023-01-29T09:35:18;4.40;99.90
54680;DHT22;40578;53.178;5.846;2023-01-29T09:37:47;4.60;99.90
54680;DHT22;40578;53.178;5.846;2023-01-29T09:43:44;4.50;99.90
54680;DHT22;40578;53.178;5.846;2023-01-29T09:46:17;4.50;99.90
54680;DHT22;40578;53.178;5.846;2023-01-29T09:48:44;4.50;99.90
54680;DHT22;40578;53.178;5.846;2023-01-29T09:51:37;4.50;99.90
54680;DHT22;40578;53.178;5.846;2023-01-29T09:54:23;4.50;99.90
54680;DHT22;40578;53.178;5.846;2023-01-29T09:56:54;4.60;99.90
54680;DHT22;40578;53.178;5.846;2023-01-29T09:59:22;4.60;99.90
54680;DHT22;40578;53.178;5.846;2023-01-29T10:01:54;4.50;99.90
54680;DHT22;40578;53.178;5.846;2023-01-29T10:15:53;4.60;99.90
54680;DHT22;40578;53.178;5.846;2023-01-29T10:18:42;4.70;99.90
54680;DHT22;40578;53.178;5.846;2023-01-29T10:24:40;4.60;99.90
54680;DHT22;40578;53.178;5.846;2023-01-29T10:27:17;4.60;99.90
54680;DHT22;40578;53.178;5.846;2023-01-29T10:29:45;4.70;99.90
54680;DHT22;40578;53.178;5.846;2023-01-29T10:32:17;4.70;99.90
54680;DHT22;40578;53.178;5.846;2023-01-29T10:34:59;4.70;99.90
54680;DHT22;40578;53.178;5.846;2023-01-29T10:37:35;4.70;99.90
54680;DHT22;40578;53.178;5.846;2023-01-29T10:42:51;5.40;99.90
54680;DHT22;40578;53.178;5.846;2023-01-29T10:48:39;4.70;99.90
54680;DHT22;40578;53.178;5.846;2023-01-29T10:53:52;4.80;99.90
54680;DHT22;40578;53.178;5.846;2023-01-29T10:59:05;4.90;99.90
54680;DHT22;40578;53.178;5.846;2023-01-29T11:01:34;5.10;99.90
54680;DHT22;40578;53.178;5.846;2023-01-29T11:04:01;4.80;99.90
54680;DHT22;40578;53.178;5.846;2023-01-29T11:06:34;4.90;99.90
54680;DHT22;40578;53.178;5.846;2023-01-29T11:12:09;5.00;99.90
54680;DHT22;40578;53.178;5.846;2023-01-29T11:14:52;5.00;99.90
54680;DHT22;40578;53.178;5.846;2023-01-29T11:17:21;5.00;99.90
54680;DHT22;40578;53.178;5.846;2023-01-29T11:19:48;5.00;99.90
54680;DHT22;40578;53.178;5.846;2023-01-29T11:22:26;6.70;99.90
54680;DHT22;40578;53.178;5.846;2023-01-29T11:25:14;5.10;99.90
54680;DHT22;40578;53.178;5.846;2023-01-29T11:27:49;5.10;99.90
54680;DHT22;40578;53.178;5.846;2023-01-29T11:30:26;5.10;99.90
54680;DHT22;40578;53.178;5.846;2023-01-29T11:33:20;5.10;99.90
54680;DHT22;40578;53.178;5.846;2023-01-29T11:35:47;5.20;99.90
54680;DHT22;40578;53.178;5.846;2023-01-29T11:38:23;5.10;99.90
54680;DHT22;40578;53.178;5.846;2023-01-29T11:40:50;5.20;99.90
54680;DHT22;40578;53.178;5.846;2023-01-29T11:43:32;5.80;99.90
54680;DHT22;40578;53.178;5.846;2023-01-29T11:46:02;5.20;99.90
54680;DHT22;40578;53.178;5.846;2023-01-29T11:48:40;5.20;99.90
54680;DHT22;40578;53.178;5.846;2023-01-29T11:51:07;5.20;99.90
54680;DHT22;40578;53.178;5.846;2023-01-29T11:53:52;5.30;99.90
54680;DHT22;40578;53.178;5.846;2023-01-29T11:56:21;6.90;99.90
54680;DHT22;40578;53.178;5.846;2023-01-29T11:58:49;5.40;99.90
54680;DHT22;40578;53.178;5.846;2023-01-29T12:01:17;5.40;99.90
54680;DHT22;40578;53.178;5.846;2023-01-29T12:03:52;5.30;99.90
54680;DHT22;40578;53.178;5.846;2023-01-29T12:06:41;5.40;99.90
54680;DHT22;40578;53.178;5.846;2023-01-29T12:09:12;5.40;99.90
54680;DHT22;40578;53.178;5.846;2023-01-29T12:11:39;5.40;99.90
54680;DHT22;40578;53.178;5.846;2023-01-29T12:14:28;5.30;99.90
54680;DHT22;40578;53.178;5.846;2023-01-29T12:17:10;5.40;99.90
54680;DHT22;40578;53.178;5.846;2023-01-29T12:19:45;5.30;99.90
54680;DHT22;40578;53.178;5.846;2023-01-29T12:22:19;5.30;99.90
54680;DHT22;40578;53.178;5.846;2023-01-29T12:25:00;5.70;99.90
54680;DHT22;40578;53.178;5.846;2023-01-29T12:27:45;5.40;99.90
54680;DHT22;40578;53.178;5.846;2023-01-29T12:30:30;5.40;99.90
54680;DHT22;40578;53.178;5.846;2023-01-29T12:33:28;5.40;99.90
54680;DHT22;40578;53.178;5.846;2023-01-29T12:36:23;5.40;99.90
54680;DHT22;40578;53.178;5.846;2023-01-29T12:38:51;5.30;99.90
54680;DHT22;40578;53.178;5.846;2023-01-29T12:41:37;5.40;99.90
54680;DHT22;40578;53.178;5.846;2023-01-29T12:44:34;5.50;99.90
54680;DHT22;40578;53.178;5.846;2023-01-29T12:47:10;5.50;99.90
54680;DHT22;40578;53.178;5.846;2023-01-29T12:49:38;5.40;99.90
54680;DHT22;40578;53.178;5.846;2023-01-29T12:54:41;5.50;99.90
54680;DHT22;40578;53.178;5.846;2023-01-29T12:57:13;5.50;99.90
54680;DHT22;40578;53.178;5.846;2023-01-29T12:59:48;5.50;99.90
54680;DHT22;40578;53.178;5.846;2023-01-29T13:02:22;5.60;99.90
54680;DHT22;40578;53.178;5.846;2023-01-29T13:05:19;5.60;99.90
54680;DHT22;40578;53.178;5.846;2023-01-29T13:08:00;5.70;99.90
54680;DHT22;40578;53.178;5.846;2023-01-29T13:10:36;5.70;99.90
54680;DHT22;40578;53.178;5.846;2023-01-29T13:13:19;5.70;99.90
54680;DHT22;40578;53.178;5.846;2023-01-29T13:15:47;5.70;99.90
54680;DHT22;40578;53.178;5.846;2023-01-29T13:20:48;5.70;99.90
54680;DHT22;40578;53.178;5.846;2023-01-29T13:23:21;5.70;99.90
54680;DHT22;40578;53.178;5.846;2023-01-29T13:25:50;5.70;99.90
54680;DHT22;40578;53.178;5.846;2023-01-29T13:28:22;7.50;99.90
54680;DHT22;40578;53.178;5.846;2023-01-29T13:31:11;5.60;99.90
54680;DHT22;40578;53.178;5.846;2023-01-29T13:33:39;5.60;99.90
54680;DHT22;40578;53.178;5.846;2023-01-29T13:36:14;5.60;99.90
54680;DHT22;40578;53.178;5.846;2023-01-29T13:38:42;5.80;99.90
54680;DHT22;40578;53.178;5.846;2023-01-29T13:41:09;5.40;99.90
54680;DHT22;40578;53.178;5.846;2023-01-29T13:43:40;5.40;99.90
54680;DHT22;40578;53.178;5.846;2023-01-29T13:46:12;5.40;99.90
54680;DHT22;40578;53.178;5.846;2023-01-29T13:48:44;5.50;99.90
54680;DHT22;40578;53.178;5.846;2023-01-29T13:51:14;5.40;99.90
54680;DHT22;40578;53.178;5.846;2023-01-29T13:54:01;5.40;99.90
54680;DHT22;40578;53.178;5.846;2023-01-29T13:56:41;6.20;99.90
54680;DHT22;40578;53.178;5.846;2023-01-29T13:59:21;5.50;99.90
54680;DHT22;40578;53.178;5.846;2023-01-29T14:06:57;5.50;99.90
54680;DHT22;40578;53.178;5.846;2023-01-29T14:17:17;5.20;99.90
54680;DHT22;40578;53.178;5.846;2023-01-29T14:19:51;5.20;99.90
54680;DHT22;40578;53.178;5.846;2023-01-29T14:22:22;5.20;99.90
54680;DHT22;40578;53.178;5.846;2023-01-29T14:24:53;5.20;99.90
54680;DHT22;40578;53.178;5.846;2023-01-29T14:27:23;5.20;99.90
54680;DHT22;40578;53.178;5.846;2023-01-29T14:30:01;5.20;99.90
54680;DHT22;40578;53.178;5.846;2023-01-29T14:32:27;5.20;99.90
54680;DHT22;40578;53.178;5.846;2023-01-29T14:35:02;5.10;99.90
54680;DHT22;40578;53.178;5.846;2023-01-29T14:37:32;5.20;99.90
54680;DHT22;40578;53.178;5.846;2023-01-29T14:40:20;5.20;99.90
54680;DHT22;40578;53.178;5.846;2023-01-29T14:45:33;5.30;99.90
54680;DHT22;40578;53.178;5.846;2023-01-29T14:53:11;5.80;99.90
54680;DHT22;40578;53.178;5.846;2023-01-29T14:58:51;5.70;99.90
54680;DHT22;40578;53.178;5.846;2023-01-29T15:01:33;5.80;99.90
54680;DHT22;40578;53.178;5.846;2023-01-29T15:06:44;5.80;99.90
54680;DHT22;40578;53.178;5.846;2023-01-29T15:12:29;5.80;99.90
54680;DHT22;40578;53.178;5.846;2023-01-29T15:15:04;5.80;99.90
54680;DHT22;40578;53.178;5.846;2023-01-29T15:17:56;7.20;99.90
54680;DHT22;40578;53.178;5.846;2023-01-29T15:20:27;5.80;99.90
54680;DHT22;40578;53.178;5.846;2023-01-29T15:22:53;5.80;99.90
54680;DHT22;40578;53.178;5.846;2023-01-29T15:25:19;5.80;99.90
54680;DHT22;40578;53.178;5.846;2023-01-29T15:27:46;6.10;99.90
54680;DHT22;40578;53.178;5.846;2023-01-29T15:30:19;5.90;99.90
54680;DHT22;40578;53.178;5.846;2023-01-29T15:32:45;5.80;99.90
54680;DHT22;40578;53.178;5.846;2023-01-29T15:35:33;5.80;99.90
54680;DHT22;40578;53.178;5.846;2023-01-29T15:40:39;5.80;99.90
54680;DHT22;40578;53.178;5.846;2023-01-29T15:43:20;6.60;99.90
54680;DHT22;40578;53.178;5.846;2023-01-29T15:45:47;5.80;99.90
54680;DHT22;40578;53.178;5.846;2023-01-29T15:48:18;5.80;99.90
54680;DHT22;40578;53.178;5.846;2023-01-29T15:50:45;5.80;99.90
54680;DHT22;40578;53.178;5.846;2023-01-29T15:53:16;5.80;99.90
54680;DHT22;40578;53.178;5.846;2023-01-29T15:55:45;5.80;99.90
54680;DHT22;40578;53.178;5.846;2023-01-29T15:58:17;5.80;99.90
54680;DHT22;40578;53.178;5.846;2023-01-29T16:00:51;5.80;99.90
54680;DHT22;40578;53.178;5.846;2023-01-29T16:03:27;5.80;99.90
54680;DHT22;40578;53.178;5.846;2023-01-29T16:05:55;5.80;99.90
54680;DHT22;40578;53.178;5.846;2023-01-29T16:08:23;5.70;99.90
54680;DHT22;40578;53.178;5.846;2023-01-29T16:11:04;5.80;99.90
54680;DHT22;40578;53.178;5.846;2023-01-29T16:13:33;5.80;99.90
54680;DHT22;40578;53.178;5.846;2023-01-29T16:16:29;5.70;99.90
54680;DHT22;40578;53.178;5.846;2023-01-29T16:18:55;5.70;99.90
54680;DHT22;40578;53.178;5.846;2023-01-29T16:21:30;5.70;99.90
54680;DHT22;40578;53.178;5.846;2023-01-29T16:24:01;5.60;99.90
54680;DHT22;40578;53.178;5.846;2023-01-29T16:26:30;6.60;99.90
54680;DHT22;40578;53.178;5.846;2023-01-29T16:29:28;5.60;99.90
54680;DHT22;40578;53.178;5.846;2023-01-29T16:31:51;5.60;99.90
54680;DHT22;40578;53.178;5.846;2023-01-29T16:34:31;5.60;99.90
54680;DHT22;40578;53.178;5.846;2023-01-29T16:36:58;5.70;99.90
54680;DHT22;40578;53.178;5.846;2023-01-29T16:39:45;5.60;99.90
54680;DHT22;40578;53.178;5.846;2023-01-29T16:47:22;5.70;99.90
54680;DHT22;40578;53.178;5.846;2023-01-29T16:49:50;5.70;99.90
54680;DHT22;40578;53.178;5.846;2023-01-29T16:52:23;5.80;99.90
54680;DHT22;40578;53.178;5.846;2023-01-29T16:54:50;6.10;99.90
54680;DHT22;40578;53.178;5.846;2023-01-29T16:57:20;5.60;99.90
54680;DHT22;40578;53.178;5.846;2023-01-29T16:59:47;6.00;99.90
54680;DHT22;40578;53.178;5.846;2023-01-29T17:02:22;5.60;99.90
54680;DHT22;40578;53.178;5.846;2023-01-29T17:04:51;5.70;99.90
54680;DHT22;40578;53.178;5.846;2023-01-29T17:07:18;5.70;99.90
54680;DHT22;40578;53.178;5.846;2023-01-29T17:09:52;5.60;99.90
54680;DHT22;40578;53.178;5.846;2023-01-29T17:12:21;5.60;99.90
54680;DHT22;40578;53.178;5.846;2023-01-29T17:14:57;5.60;99.90
54680;DHT22;40578;53.178;5.846;2023-01-29T17:17:29;5.70;99.90
54680;DHT22;40578;53.178;5.846;2023-01-29T17:19:56;5.60;99.90
54680;DHT22;40578;53.178;5.846;2023-01-29T17:22:21;5.70;99.90
54680;DHT22;40578;53.178;5.846;2023-01-29T17:24:47;5.50;99.90
54680;DHT22;40578;53.178;5.846;2023-01-29T17:27:21;5.50;99.90
54680;DHT22;40578;53.178;5.846;2023-01-29T17:29:47;5.50;99.90
54680;DHT22;40578;53.178;5.846;2023-01-29T17:32:13;6.60;99.90
54680;DHT22;40578;53.178;5.846;2023-01-29T17:34:41;5.50;99.90
54680;DHT22;40578;53.178;5.846;2023-01-29T17:37:11;5.50;99.90
54680;DHT22;40578;53.178;5.846;2023-01-29T17:39:38;5.40;99.90
54680;DHT22;40578;53.178;5.846;2023-01-29T17:42:03;5.90;99.90
54680;DHT22;40578;53.178;5.846;2023-01-29T17:44:29;5.40;99.90
54680;DHT22;40578;53.178;5.846;2023-01-29T17:46:55;5.40;99.90
54680;DHT22;40578;53.178;5.846;2023-01-29T17:49:28;5.30;99.90
54680;DHT22;40578;53.178;5.846;2023-01-29T17:51:55;5.50;99.90
54680;DHT22;40578;53.178;5.846;2023-01-29T17:54:21;5.20;99.90
54680;DHT22;40578;53.178;5.846;2023-01-29T17:56:49;5.10;99.90
54680;DHT22;40578;53.178;5.846;2023-01-29T17:59:23;5.20;99.90
54680;DHT22;40578;53.178;5.846;2023-01-29T18:01:49;5.10;99.90
54680;DHT22;40578;53.178;5.846;2023-01-29T18:04:16;5.10;99.90
54680;DHT22;40578;53.178;5.846;2023-01-29T18:06:43;5.10;99.90
54680;DHT22;40578;53.178;5.846;2023-01-29T18:09:12;5.10;99.90
54680;DHT22;40578;53.178;5.846;2023-01-29T18:11:38;5.10;99.90
54680;DHT22;40578;53.178;5.846;2023-01-29T18:14:04;5.10;99.90